createdAt,value
2022-12-22T00:01:52.426Z,5.90
2022-12-22T00:04:19.140Z,5.80
2022-12-22T00:06:45.798Z,5.70
2022-12-22T00:09:12.382Z,5.60
2022-12-22T00:11:39.106Z,5.60
2022-12-22T00:14:05.755Z,5.80
2022-12-22T00:16:37.430Z,5.80
2022-12-22T00:19:05.239Z,5.90
2022-12-22T00:21:31.870Z,5.90
2022-12-22T00:23:59.426Z,5.70
2022-12-22T00:26:26.845Z,5.60
2022-12-22T00:28:53.412Z,5.50
2022-12-22T00:31:20.954Z,5.60
2022-12-22T00:33:47.590Z,5.50
2022-12-22T00:36:14.843Z,5.50
2022-12-22T00:38:41.421Z,5.50
2022-12-22T00:41:08.148Z,5.50
2022-12-22T00:43:34.738Z,5.60
2022-12-22T00:46:04.021Z,5.60
2022-12-22T00:48:30.653Z,5.60
2022-12-22T00:50:57.527Z,5.70
2022-12-22T00:53:24.179Z,5.60
2022-12-22T00:55:51.001Z,5.60
2022-12-22T00:58:20.075Z,5.70
2022-12-22T01:00:46.760Z,5.80
2022-12-22T01:03:13.731Z,5.70
2022-12-22T01:05:40.356Z,5.70
2022-12-22T01:08:10.195Z,5.60
2022-12-22T01:10:36.917Z,5.50
2022-12-22T01:13:10.136Z,5.50
2022-12-22T01:15:36.726Z,5.40
2022-12-22T01:18:03.733Z,5.40
2022-12-22T01:20:31.875Z,5.40
2022-12-22T01:22:58.519Z,5.30
2022-12-22T01:25:25.123Z,5.40
2022-12-22T01:27:51.693Z,5.40
2022-12-22T01:30:18.265Z,5.30
2022-12-22T01:32:44.855Z,5.30
2022-12-22T01:35:23.507Z,5.30
2022-12-22T01:37:50.065Z,5.30
2022-12-22T01:40:20.232Z,5.30
2022-12-22T01:42:46.899Z,5.30
2022-12-22T01:45:20.600Z,5.30
2022-12-22T01:47:47.217Z,5.20
2022-12-22T01:50:19.743Z,5.30
2022-12-22T01:52:46.340Z,5.30
2022-12-22T01:55:17.500Z,5.30
2022-12-22T01:57:44.380Z,5.40
2022-12-22T02:00:11.586Z,5.40
2022-12-22T02:02:38.270Z,5.60
2022-12-22T02:05:07.913Z,5.80
2022-12-22T02:07:55.713Z,5.90
2022-12-22T02:11:20.718Z,5.90
2022-12-22T02:14:04.579Z,5.90
2022-12-22T02:16:52.146Z,5.90
2022-12-22T02:19:18.697Z,5.90
2022-12-22T02:22:29.899Z,6.00
2022-12-22T02:25:06.110Z,6.10
2022-12-22T02:27:36.137Z,6.20
2022-12-22T02:30:08.120Z,6.20
2022-12-22T02:32:38.778Z,6.30
2022-12-22T02:35:16.582Z,6.60
2022-12-22T02:37:52.327Z,6.70
2022-12-22T02:40:40.663Z,7.00
2022-12-22T02:43:42.194Z,6.90
2022-12-22T02:46:30.998Z,7.00
2022-12-22T02:49:01.925Z,7.10
2022-12-22T02:51:32.299Z,7.00
2022-12-22T02:54:00.012Z,7.00
2022-12-22T02:56:26.780Z,6.90
2022-12-22T02:58:53.928Z,7.00
2022-12-22T03:01:20.581Z,7.00
2022-12-22T03:03:48.053Z,6.90
2022-12-22T03:06:14.752Z,6.90
2022-12-22T03:08:41.312Z,6.90
2022-12-22T03:11:07.916Z,6.90
2022-12-22T03:13:34.481Z,6.90
2022-12-22T03:16:01.150Z,6.90
2022-12-22T03:18:27.780Z,7.00
2022-12-22T03:20:54.919Z,7.00
2022-12-22T03:23:21.495Z,7.10
2022-12-22T03:25:48.433Z,7.10
2022-12-22T03:28:15.183Z,7.10
2022-12-22T03:30:41.745Z,7.10
2022-12-22T03:33:08.399Z,7.10
2022-12-22T03:35:34.972Z,7.10
2022-12-22T03:38:01.556Z,7.20
2022-12-22T03:40:28.147Z,7.20
2022-12-22T03:42:54.753Z,7.20
2022-12-22T03:45:21.355Z,7.10
2022-12-22T03:47:47.915Z,7.10
2022-12-22T03:50:14.537Z,7.20
2022-12-22T03:52:41.253Z,7.20
2022-12-22T03:55:08.097Z,7.20
2022-12-22T03:57:34.672Z,7.20
2022-12-22T04:00:01.284Z,7.10
2022-12-22T04:02:27.994Z,7.10
2022-12-22T04:04:54.668Z,7.20
2022-12-22T04:07:21.284Z,7.20
2022-12-22T04:09:47.876Z,7.10
2022-12-22T04:12:14.458Z,7.20
2022-12-22T04:14:41.165Z,7.20
2022-12-22T04:17:08.290Z,7.30
2022-12-22T04:19:34.875Z,7.40
2022-12-22T04:22:01.698Z,7.30
2022-12-22T04:24:28.349Z,7.40
2022-12-22T04:26:54.934Z,7.40
2022-12-22T04:29:21.520Z,7.50
2022-12-22T04:31:48.120Z,7.40
2022-12-22T04:34:14.794Z,7.50
2022-12-22T04:36:41.339Z,7.60
2022-12-22T04:39:07.931Z,7.70
2022-12-22T04:41:34.521Z,7.70
2022-12-22T04:44:01.110Z,7.60
2022-12-22T04:46:27.837Z,7.60
2022-12-22T04:48:59.525Z,7.70
2022-12-22T04:51:26.729Z,7.70
2022-12-22T04:53:53.293Z,7.70
2022-12-22T04:56:19.908Z,7.80
2022-12-22T04:58:46.479Z,7.80
2022-12-22T05:01:15.608Z,7.80
2022-12-22T05:03:42.532Z,7.80
2022-12-22T05:06:09.641Z,7.80
2022-12-22T05:08:36.224Z,7.80
2022-12-22T05:11:02.992Z,7.80
2022-12-22T05:13:32.921Z,7.80
2022-12-22T05:16:04.440Z,7.80
2022-12-22T05:18:31.670Z,7.80
2022-12-22T05:20:58.248Z,7.90
2022-12-22T05:23:24.829Z,7.90
2022-12-22T05:25:51.379Z,7.90
2022-12-22T05:28:17.949Z,7.90
2022-12-22T05:30:44.574Z,7.90
2022-12-22T05:33:11.191Z,7.80
2022-12-22T05:35:37.781Z,7.80
2022-12-22T05:38:04.354Z,7.80
2022-12-22T05:40:30.950Z,7.80
2022-12-22T05:42:57.554Z,7.70
2022-12-22T05:45:24.219Z,7.70
2022-12-22T05:47:52.174Z,7.60
2022-12-22T05:50:22.158Z,7.60
2022-12-22T05:52:48.747Z,7.60
2022-12-22T05:55:16.299Z,7.50
2022-12-22T05:57:42.974Z,7.50
2022-12-22T06:00:12.815Z,7.50
2022-12-22T06:02:41.017Z,7.60
2022-12-22T06:05:08.621Z,7.60
2022-12-22T06:07:35.306Z,7.70
2022-12-22T06:10:06.442Z,7.70
2022-12-22T06:12:38.224Z,7.70
2022-12-22T06:15:05.741Z,7.80
2022-12-22T06:17:32.347Z,7.80
2022-12-22T06:19:58.903Z,7.90
2022-12-22T06:22:25.495Z,7.90
2022-12-22T06:24:52.079Z,7.90
2022-12-22T06:27:18.650Z,8.00
2022-12-22T06:29:45.223Z,8.10
2022-12-22T06:32:11.832Z,8.20
2022-12-22T06:34:38.413Z,8.40
2022-12-22T06:37:04.995Z,8.40
2022-12-22T06:39:31.552Z,8.40
2022-12-22T06:41:58.166Z,8.40
2022-12-22T06:44:24.885Z,8.50
2022-12-22T06:46:51.523Z,8.50
2022-12-22T06:49:18.131Z,8.40
2022-12-22T06:51:44.877Z,8.40
2022-12-22T06:54:11.456Z,8.40
2022-12-22T06:56:38.037Z,8.40
2022-12-22T06:59:04.860Z,8.40
2022-12-22T07:01:31.531Z,8.40
2022-12-22T07:03:58.263Z,8.50
2022-12-22T07:06:24.850Z,8.60
2022-12-22T07:08:51.427Z,8.50
2022-12-22T07:11:18.089Z,8.60
2022-12-22T07:13:45.222Z,8.60
2022-12-22T07:16:12.175Z,8.60
2022-12-22T07:18:40.949Z,8.60
2022-12-22T07:21:10.676Z,8.50
2022-12-22T07:23:38.252Z,8.60
2022-12-22T07:26:05.851Z,8.70
2022-12-22T07:28:34.035Z,8.80
2022-12-22T07:31:00.659Z,9.00
2022-12-22T07:33:27.351Z,9.00
2022-12-22T07:36:10.206Z,9.10
2022-12-22T07:38:42.058Z,9.00
2022-12-22T07:41:10.018Z,8.90
2022-12-22T07:43:36.577Z,9.00
2022-12-22T07:46:06.423Z,9.00
2022-12-22T07:48:32.991Z,9.10
2022-12-22T07:51:03.682Z,9.00
2022-12-22T07:53:30.275Z,9.10
2022-12-22T07:55:56.860Z,9.10
2022-12-22T07:58:23.425Z,9.20
2022-12-22T08:00:50.024Z,9.10
2022-12-22T08:03:16.649Z,9.10
2022-12-22T08:05:43.291Z,9.10
2022-12-22T08:08:09.857Z,9.20
2022-12-22T08:10:36.410Z,9.20
2022-12-22T08:13:03.306Z,9.20
2022-12-22T08:15:29.909Z,9.10
2022-12-22T08:17:56.805Z,9.20
2022-12-22T08:20:23.388Z,9.20
2022-12-22T08:22:49.966Z,9.20
2022-12-22T08:25:16.649Z,9.30
2022-12-22T08:27:51.198Z,9.30
2022-12-22T08:30:17.750Z,9.30
2022-12-22T08:32:48.339Z,9.40
2022-12-22T08:35:14.956Z,9.50
2022-12-22T08:37:44.980Z,9.60
2022-12-22T08:40:19.205Z,9.60
2022-12-22T08:42:47.577Z,9.70
2022-12-22T08:45:14.203Z,9.60
2022-12-22T08:47:40.802Z,9.60
2022-12-22T08:50:08.013Z,9.70
2022-12-22T08:52:34.755Z,9.70
2022-12-22T08:55:01.320Z,9.70
2022-12-22T08:57:28.040Z,9.50
2022-12-22T08:59:54.659Z,9.50
2022-12-22T09:02:21.407Z,9.50
2022-12-22T09:04:48.044Z,9.40
2022-12-22T09:07:14.648Z,9.30
2022-12-22T09:09:41.433Z,9.20
2022-12-22T09:12:08.161Z,9.20
2022-12-22T09:14:34.771Z,9.20
2022-12-22T09:17:01.488Z,9.10
2022-12-22T09:19:28.172Z,9.20
2022-12-22T09:21:55.417Z,9.10
2022-12-22T09:24:22.308Z,9.20
2022-12-22T09:26:49.106Z,9.20
2022-12-22T09:29:16.041Z,9.30
2022-12-22T09:31:43.514Z,9.40
2022-12-22T09:34:15.332Z,9.50
2022-12-22T09:36:44.474Z,9.50
2022-12-22T09:39:11.115Z,9.60
2022-12-22T09:41:43.085Z,9.60
2022-12-22T09:44:26.104Z,9.60
2022-12-22T09:46:54.852Z,9.60
2022-12-22T09:49:22.487Z,9.60
2022-12-22T09:51:56.269Z,9.70
2022-12-22T09:54:24.504Z,9.70
2022-12-22T09:56:51.354Z,9.90
2022-12-22T09:59:20.138Z,9.90
2022-12-22T10:02:15.317Z,9.90
2022-12-22T10:04:41.921Z,9.90
2022-12-22T10:07:39.343Z,10.00
2022-12-22T10:10:25.213Z,10.00
2022-12-22T10:12:55.148Z,10.10
2022-12-22T10:15:22.337Z,10.10
2022-12-22T10:17:54.221Z,10.20
2022-12-22T10:20:26.495Z,10.20
2022-12-22T10:23:01.928Z,10.10
2022-12-22T10:25:45.252Z,10.10
2022-12-22T10:28:22.308Z,10.10
2022-12-22T10:30:48.941Z,10.10
2022-12-22T10:33:18.388Z,10.10
2022-12-22T10:35:57.236Z,10.10
2022-12-22T10:39:12.967Z,10.20
2022-12-22T10:41:45.700Z,10.30
2022-12-22T10:44:15.362Z,10.40
2022-12-22T10:46:51.336Z,10.60
2022-12-22T10:49:29.123Z,10.80
2022-12-22T10:52:18.415Z,10.80
2022-12-22T10:54:47.383Z,10.80
2022-12-22T10:57:13.913Z,10.70
2022-12-22T11:00:00.418Z,10.60
2022-12-22T11:05:05.119Z,10.00
2022-12-22T11:07:34.717Z,10.10
2022-12-22T11:10:01.539Z,9.90
2022-12-22T11:12:48.955Z,9.70
2022-12-22T11:15:48.485Z,9.60
2022-12-22T11:18:23.681Z,9.50
2022-12-22T11:20:55.964Z,9.40
2022-12-22T11:23:41.421Z,9.40
2022-12-22T11:26:16.270Z,9.30
2022-12-22T11:29:04.489Z,9.30
2022-12-22T11:31:31.123Z,9.20
2022-12-22T11:34:32.940Z,9.20
2022-12-22T11:37:25.263Z,9.20
2022-12-22T11:40:24.472Z,9.20
2022-12-22T11:43:14.764Z,9.20
2022-12-22T11:45:54.842Z,9.30
2022-12-22T11:48:45.976Z,9.30
2022-12-22T11:51:27.734Z,9.40
2022-12-22T11:54:15.704Z,9.40
2022-12-22T11:56:47.182Z,9.40
2022-12-22T11:59:26.454Z,9.50
2022-12-22T12:02:11.949Z,9.50
2022-12-22T12:05:03.658Z,9.50
2022-12-22T12:07:38.263Z,9.60
2022-12-22T12:10:13.792Z,9.60
2022-12-22T12:12:53.054Z,9.70
2022-12-22T12:15:31.966Z,9.70
2022-12-22T12:18:37.165Z,9.90
2022-12-22T12:21:10.392Z,10.10
2022-12-22T12:24:15.997Z,10.20
2022-12-22T12:27:08.822Z,10.20
2022-12-22T12:29:41.836Z,10.30
2022-12-22T12:32:27.492Z,10.40
2022-12-22T12:35:04.128Z,10.30
2022-12-22T12:37:36.909Z,10.30
2022-12-22T12:40:29.423Z,10.30
2022-12-22T12:42:57.055Z,10.30
2022-12-22T12:45:44.739Z,10.30
2022-12-22T12:48:20.223Z,10.30
2022-12-22T12:50:53.126Z,10.30
2022-12-22T12:53:21.453Z,10.30
2022-12-22T12:55:47.989Z,10.40
2022-12-22T12:58:34.516Z,10.40
2022-12-22T13:01:39.226Z,10.40
2022-12-22T13:04:09.220Z,10.40
2022-12-22T13:06:52.644Z,10.40
2022-12-22T13:12:49.246Z,10.40
2022-12-22T13:15:36.870Z,10.40
2022-12-22T13:18:11.721Z,10.50
2022-12-22T13:20:38.496Z,10.50
2022-12-22T13:23:12.410Z,10.60
2022-12-22T13:26:10.415Z,10.50
2022-12-22T13:28:41.293Z,10.50
2022-12-22T13:31:19.690Z,10.60
2022-12-22T13:34:03.171Z,10.60
2022-12-22T13:36:31.465Z,10.50
2022-12-22T13:39:14.223Z,10.60
2022-12-22T13:41:44.481Z,10.60
2022-12-22T13:44:18.079Z,10.60
2022-12-22T13:46:45.003Z,10.60
2022-12-22T13:49:36.225Z,10.60
2022-12-22T13:52:06.064Z,10.60
2022-12-22T13:54:36.321Z,10.60
2022-12-22T13:57:13.135Z,10.60
2022-12-22T13:59:45.229Z,10.60
2022-12-22T14:02:11.860Z,10.60
2022-12-22T14:04:41.055Z,10.70
2022-12-22T14:07:19.128Z,10.70
2022-12-22T14:09:46.799Z,10.60
2022-12-22T14:12:16.722Z,10.60
2022-12-22T14:14:46.089Z,10.60
2022-12-22T14:17:23.407Z,10.50
2022-12-22T14:19:52.316Z,10.50
2022-12-22T14:22:33.397Z,10.60
2022-12-22T14:25:07.596Z,10.60
2022-12-22T14:27:41.841Z,10.60
2022-12-22T14:30:21.160Z,10.50
2022-12-22T14:32:54.865Z,10.50
2022-12-22T14:35:22.135Z,10.50
2022-12-22T14:38:07.692Z,10.50
2022-12-22T14:40:35.569Z,10.50
2022-12-22T14:43:19.351Z,10.50
2022-12-22T14:45:51.084Z,10.40
2022-12-22T14:48:39.600Z,10.40
2022-12-22T14:51:06.773Z,10.40
2022-12-22T14:53:46.625Z,10.40
2022-12-22T14:56:15.678Z,10.40
2022-12-22T14:58:43.667Z,10.40
2022-12-22T15:01:23.049Z,10.40
2022-12-22T15:04:14.742Z,10.40
2022-12-22T15:06:43.520Z,10.30
2022-12-22T15:09:15.895Z,10.30
2022-12-22T15:11:43.662Z,10.30
2022-12-22T15:14:22.986Z,10.30
2022-12-22T15:16:50.309Z,10.40
2022-12-22T15:19:19.295Z,10.40
2022-12-22T15:21:46.019Z,10.40
2022-12-22T15:24:14.906Z,10.40
2022-12-22T15:26:42.348Z,10.40
2022-12-22T15:29:08.926Z,10.40
2022-12-22T15:31:36.907Z,10.40
2022-12-22T15:34:09.783Z,10.40
2022-12-22T15:36:36.377Z,10.30
2022-12-22T15:39:03.022Z,10.30
2022-12-22T15:41:29.608Z,10.30
2022-12-22T15:43:58.727Z,10.40
2022-12-22T15:46:26.060Z,10.40
2022-12-22T15:48:52.884Z,10.40
2022-12-22T15:51:30.382Z,10.40
2022-12-22T15:53:58.219Z,10.50
2022-12-22T15:56:26.987Z,10.50
2022-12-22T15:58:54.062Z,10.50
2022-12-22T16:01:20.707Z,10.40
2022-12-22T16:03:47.401Z,10.40
2022-12-22T16:06:16.003Z,10.40
2022-12-22T16:08:46.229Z,10.50
2022-12-22T16:11:12.867Z,10.40
2022-12-22T16:13:39.569Z,10.40
2022-12-22T16:16:06.430Z,10.40
2022-12-22T16:18:33.099Z,10.30
2022-12-22T16:21:05.813Z,10.30
2022-12-22T16:23:32.463Z,10.30
2022-12-22T16:26:01.932Z,10.30
2022-12-22T16:28:29.403Z,10.30
2022-12-22T16:30:56.303Z,10.20
2022-12-22T16:33:22.960Z,10.20
2022-12-22T16:35:49.541Z,10.20
2022-12-22T16:38:19.078Z,10.20
2022-12-22T16:40:51.638Z,10.20
2022-12-22T16:46:13.932Z,10.20
2022-12-22T16:48:44.300Z,10.30
2022-12-22T16:51:26.444Z,10.30
2022-12-22T16:53:53.311Z,10.20
2022-12-22T16:56:23.145Z,10.20
2022-12-22T16:58:49.762Z,10.30
2022-12-22T17:01:39.008Z,10.20
2022-12-22T17:04:13.285Z,10.20
2022-12-22T17:06:41.009Z,10.20
2022-12-22T17:09:14.467Z,10.20
2022-12-22T17:11:41.396Z,10.10
2022-12-22T17:14:18.862Z,10.10
2022-12-22T17:16:45.413Z,10.10
2022-12-22T17:19:12.002Z,10.10
2022-12-22T17:21:38.681Z,10.10
2022-12-22T17:24:05.693Z,10.10
2022-12-22T17:26:34.315Z,10.10
2022-12-22T17:29:01.093Z,10.10
2022-12-22T17:31:27.888Z,10.00
2022-12-22T17:33:54.536Z,10.00
2022-12-22T17:36:34.249Z,10.00
2022-12-22T17:39:01.868Z,10.00
2022-12-22T17:41:28.588Z,9.90
2022-12-22T17:43:55.241Z,10.00
2022-12-22T17:46:22.333Z,9.90
2022-12-22T17:48:49.757Z,9.90
2022-12-22T17:51:26.733Z,10.00
2022-12-22T17:53:54.706Z,10.00
2022-12-22T17:56:26.462Z,9.90
2022-12-22T17:58:53.730Z,9.90
2022-12-22T18:01:26.727Z,9.90
2022-12-22T18:03:54.196Z,9.90
2022-12-22T18:06:24.010Z,9.90
2022-12-22T18:08:52.723Z,9.80
2022-12-22T18:11:19.620Z,9.80
2022-12-22T18:13:46.298Z,9.80
2022-12-22T18:16:16.041Z,9.80
2022-12-22T18:18:43.648Z,9.70
2022-12-22T18:21:22.426Z,9.70
2022-12-22T18:23:50.988Z,9.70
2022-12-22T18:26:24.986Z,9.80
2022-12-22T18:28:52.002Z,9.70
2022-12-22T18:31:19.236Z,9.70
2022-12-22T18:33:45.831Z,9.70
2022-12-22T18:36:27.259Z,9.60
2022-12-22T18:38:53.937Z,9.60
2022-12-22T18:41:23.245Z,9.60
2022-12-22T18:43:50.704Z,9.50
2022-12-22T18:46:17.729Z,9.50
2022-12-22T18:48:44.666Z,9.50
2022-12-22T18:51:22.993Z,9.50
2022-12-22T18:53:51.173Z,9.50
2022-12-22T18:56:18.092Z,9.50
2022-12-22T18:58:45.129Z,9.50
2022-12-22T19:01:26.391Z,9.50
2022-12-22T19:03:57.169Z,9.50
2022-12-22T19:06:23.887Z,9.40
2022-12-22T19:08:51.190Z,9.40
2022-12-22T19:11:23.618Z,9.40
2022-12-22T19:13:51.915Z,9.40
2022-12-22T19:16:22.837Z,9.40
2022-12-22T19:18:49.564Z,9.30
2022-12-22T19:21:17.447Z,9.30
2022-12-22T19:23:44.403Z,9.30
2022-12-22T19:26:20.435Z,9.30
2022-12-22T19:28:50.864Z,9.30
2022-12-22T19:31:26.519Z,9.20
2022-12-22T19:33:54.342Z,9.10
2022-12-22T19:36:23.884Z,9.10
2022-12-22T19:38:51.228Z,9.10
2022-12-22T19:41:41.599Z,9.20
2022-12-22T19:44:20.990Z,9.20
2022-12-22T19:46:48.111Z,9.10
2022-12-22T19:49:17.286Z,9.10
2022-12-22T19:51:43.917Z,9.10
2022-12-22T19:54:10.516Z,9.20
2022-12-22T19:56:37.447Z,9.10
2022-12-22T19:59:08.104Z,9.10
2022-12-22T20:01:35.249Z,9.20
2022-12-22T20:04:01.949Z,9.20
2022-12-22T20:06:28.578Z,9.20
2022-12-22T20:08:55.163Z,9.20
2022-12-22T20:11:21.746Z,9.20
2022-12-22T20:13:48.419Z,9.30
2022-12-22T20:16:16.623Z,9.20
2022-12-22T20:18:44.326Z,9.20
2022-12-22T20:21:21.125Z,9.30
2022-12-22T20:23:47.850Z,9.30
2022-12-22T20:26:19.129Z,9.30
2022-12-22T20:28:46.043Z,9.40
2022-12-22T20:31:15.377Z,9.30
2022-12-22T20:33:42.404Z,9.30
2022-12-22T20:36:32.410Z,9.40
2022-12-22T20:38:59.995Z,9.40
2022-12-22T20:41:27.724Z,9.40
2022-12-22T20:43:54.542Z,9.40
2022-12-22T20:46:29.273Z,9.40
2022-12-22T20:49:03.899Z,9.50
2022-12-22T20:51:31.801Z,9.50
2022-12-22T20:53:59.107Z,9.40
2022-12-22T20:56:32.975Z,9.40
2022-12-22T20:59:01.780Z,9.40
2022-12-22T21:01:28.566Z,9.30
2022-12-22T21:03:55.602Z,9.40
2022-12-22T21:06:29.023Z,9.30
2022-12-22T21:08:58.029Z,9.30
2022-12-22T21:11:25.516Z,9.30
2022-12-22T21:13:52.506Z,9.40
2022-12-22T21:16:21.986Z,9.30
2022-12-22T21:18:48.576Z,9.20
2022-12-22T21:21:15.192Z,9.30
2022-12-22T21:23:41.819Z,9.30
2022-12-22T21:26:20.811Z,9.30
2022-12-22T21:28:47.731Z,9.30
2022-12-22T21:31:14.397Z,9.30
2022-12-22T21:33:41.132Z,9.30
2022-12-22T21:36:20.608Z,9.30
2022-12-22T21:38:47.314Z,9.30
2022-12-22T21:41:13.906Z,9.30
2022-12-22T21:43:40.500Z,9.20
2022-12-22T21:46:10.379Z,9.20
2022-12-22T21:48:37.037Z,9.10
2022-12-22T21:51:03.754Z,9.10
2022-12-22T21:53:30.320Z,9.10
2022-12-22T21:55:56.867Z,9.10
2022-12-22T21:58:23.443Z,9.10
2022-12-22T22:00:50.089Z,9.00
2022-12-22T22:03:16.775Z,9.00
2022-12-22T22:05:43.671Z,8.90
2022-12-22T22:08:12.106Z,8.90
2022-12-22T22:10:41.191Z,8.90
2022-12-22T22:13:08.327Z,8.80
2022-12-22T22:15:35.236Z,8.80
2022-12-22T22:18:06.968Z,8.80
2022-12-22T22:20:34.095Z,8.90
2022-12-22T22:23:00.863Z,8.90
2022-12-22T22:25:27.511Z,8.80
2022-12-22T22:27:54.090Z,8.80
2022-12-22T22:30:23.064Z,8.80
2022-12-22T22:32:49.823Z,8.80
2022-12-22T22:35:17.294Z,8.80
2022-12-22T22:37:44.048Z,8.80
2022-12-22T22:40:14.812Z,8.80
2022-12-22T22:42:41.388Z,8.80
2022-12-22T22:45:08.487Z,8.70
2022-12-22T22:47:35.223Z,8.70
2022-12-22T22:50:06.327Z,8.70
2022-12-22T22:52:33.653Z,8.60
2022-12-22T22:55:00.243Z,8.60
2022-12-22T22:57:26.848Z,8.60
2022-12-22T22:59:53.419Z,8.60
2022-12-22T23:02:20.521Z,8.60
2022-12-22T23:04:47.238Z,8.60
2022-12-22T23:07:13.826Z,8.60
2022-12-22T23:09:40.398Z,8.50
2022-12-22T23:12:07.029Z,8.50
2022-12-22T23:14:33.629Z,8.50
2022-12-22T23:17:00.227Z,8.50
2022-12-22T23:19:26.931Z,8.40
2022-12-22T23:21:53.532Z,8.40
2022-12-22T23:24:20.116Z,8.40
2022-12-22T23:26:46.703Z,8.40
2022-12-22T23:29:13.319Z,8.30
2022-12-22T23:31:40.171Z,8.30
2022-12-22T23:34:06.836Z,8.30
2022-12-22T23:36:33.492Z,8.30
2022-12-22T23:39:00.146Z,8.20
2022-12-22T23:41:26.739Z,8.30
2022-12-22T23:43:53.948Z,8.20
2022-12-22T23:46:21.187Z,8.20
2022-12-22T23:48:52.520Z,8.30
2022-12-22T23:51:20.945Z,8.20
2022-12-22T23:53:47.531Z,8.20
2022-12-22T23:56:14.698Z,8.10
2022-12-22T23:58:42.533Z,8.10
